createdAt,value
2018-09-22T00:02:21.115Z,18.55
2018-09-22T00:04:49.142Z,22.25
2018-09-22T00:07:16.563Z,18.50
2018-09-22T00:09:43.997Z,19.35
2018-09-22T00:12:11.353Z,18.95
2018-09-22T00:14:38.746Z,20.50
2018-09-22T00:17:06.824Z,17.50
2018-09-22T00:19:34.905Z,18.05
2018-09-22T00:22:02.867Z,18.15
2018-09-22T00:24:30.399Z,19.20
2018-09-22T00:26:58.672Z,19.73
2018-09-22T00:29:26.058Z,17.92
2018-09-22T00:31:53.450Z,19.12
2018-09-22T00:34:20.820Z,17.50
2018-09-22T00:39:19.169Z,18.65
2018-09-22T00:41:47.259Z,18.45
2018-09-22T00:44:15.583Z,17.60
2018-09-22T00:46:43.117Z,18.35
2018-09-22T00:49:15.205Z,17.10
2018-09-22T00:51:42.975Z,18.90
2018-09-22T00:54:10.882Z,18.05
2018-09-22T00:56:38.386Z,19.27
2018-09-22T00:59:10.198Z,17.45
2018-09-22T01:01:37.603Z,17.75
2018-09-22T01:04:05.121Z,18.77
2018-09-22T01:06:33.279Z,19.07
2018-09-22T01:09:07.102Z,19.67
2018-09-22T01:11:35.197Z,19.25
2018-09-22T01:14:02.817Z,24.52
2018-09-22T01:16:30.148Z,17.10
2018-09-22T01:19:02.289Z,18.00
2018-09-22T01:21:30.045Z,18.77
2018-09-22T01:23:57.841Z,19.60
2018-09-22T01:26:25.328Z,18.12
2018-09-22T01:28:52.680Z,18.98
2018-09-22T01:31:20.745Z,17.17
2018-09-22T01:33:48.284Z,18.80
2018-09-22T01:36:16.131Z,17.32
2018-09-22T01:38:43.495Z,21.37
2018-09-22T01:41:10.962Z,18.27
2018-09-22T01:43:38.391Z,20.80
2018-09-22T01:46:05.670Z,19.15
2018-09-22T01:48:33.143Z,21.95
2018-09-22T01:51:01.112Z,19.87
2018-09-22T01:53:28.858Z,17.55
2018-09-22T01:55:56.263Z,19.30
2018-09-22T01:58:24.724Z,19.42
2018-09-22T02:00:52.782Z,18.60
2018-09-22T02:03:20.209Z,19.65
2018-09-22T02:05:48.394Z,18.12
2018-09-22T02:08:16.823Z,20.85
2018-09-22T02:10:44.285Z,21.65
2018-09-22T02:13:15.964Z,19.35
2018-09-22T02:15:43.381Z,21.05
2018-09-22T02:18:10.813Z,18.73
2018-09-22T02:20:38.200Z,18.17
2018-09-22T02:23:06.207Z,17.65
2018-09-22T02:25:33.582Z,22.48
2018-09-22T02:28:07.562Z,19.15
2018-09-22T02:30:35.330Z,18.75
2018-09-22T02:33:07.627Z,16.50
2018-09-22T02:35:35.000Z,21.90
2018-09-22T02:38:03.174Z,17.85
2018-09-22T02:40:30.830Z,18.48
2018-09-22T02:42:58.345Z,17.70
2018-09-22T02:45:25.922Z,20.12
2018-09-22T02:47:58.284Z,18.62
2018-09-22T02:50:29.710Z,18.65
2018-09-22T02:52:57.107Z,20.27
2018-09-22T02:55:24.507Z,17.40
2018-09-22T02:57:51.900Z,19.65
2018-09-22T03:00:19.334Z,19.15
2018-09-22T03:02:47.151Z,21.60
2018-09-22T03:05:14.559Z,20.62
2018-09-22T03:07:42.007Z,22.27
2018-09-22T03:10:13.997Z,19.77
2018-09-22T03:12:41.374Z,18.12
2018-09-22T03:15:09.244Z,19.90
2018-09-22T03:17:36.794Z,19.45
2018-09-22T03:20:04.467Z,21.17
2018-09-22T03:22:31.989Z,21.33
2018-09-22T03:27:37.609Z,21.80
2018-09-22T03:30:05.079Z,22.55
2018-09-22T03:32:32.435Z,22.93
2018-09-22T03:35:00.255Z,18.65
2018-09-22T03:37:28.243Z,20.70
2018-09-22T03:40:00.037Z,18.60
2018-09-22T03:42:27.480Z,21.97
2018-09-22T03:44:56.234Z,18.02
2018-09-22T03:49:51.121Z,19.75
2018-09-22T03:52:19.560Z,17.15
2018-09-22T03:54:47.458Z,23.80
2018-09-22T03:57:15.718Z,20.43
2018-09-22T03:59:43.529Z,19.60
2018-09-22T04:02:10.923Z,21.75
2018-09-22T04:04:39.403Z,19.12
2018-09-22T04:07:07.601Z,22.67
2018-09-22T04:09:35.098Z,21.62
2018-09-22T04:12:03.564Z,20.92
2018-09-22T04:14:30.954Z,21.35
2018-09-22T04:16:58.383Z,23.02
2018-09-22T04:19:26.251Z,21.52
2018-09-22T04:21:58.203Z,21.90
2018-09-22T04:24:26.061Z,19.87
2018-09-22T04:26:53.462Z,18.45
2018-09-22T04:29:21.615Z,23.77
2018-09-22T04:31:49.778Z,22.27
2018-09-22T04:34:17.870Z,23.38
2018-09-22T04:36:45.409Z,19.52
2018-09-22T04:39:13.363Z,21.97
2018-09-22T04:41:42.151Z,23.85
2018-09-22T04:46:37.019Z,20.45
2018-09-22T04:49:04.809Z,23.75
2018-09-22T04:51:36.247Z,21.70
2018-09-22T04:56:31.483Z,23.70
2018-09-22T04:58:59.915Z,19.48
2018-09-22T05:01:28.261Z,22.27
2018-09-22T05:04:00.891Z,20.02
2018-09-22T05:06:37.710Z,24.82
2018-09-22T05:09:06.770Z,21.27
2018-09-22T05:11:34.147Z,21.60
2018-09-22T05:14:02.976Z,22.30
2018-09-22T05:16:32.099Z,23.60
2018-09-22T05:18:59.956Z,19.45
2018-09-22T05:23:56.314Z,20.60
2018-09-22T05:26:23.711Z,26.70
2018-09-22T05:28:51.631Z,20.32
2018-09-22T05:31:19.003Z,20.82
2018-09-22T05:33:46.847Z,19.80
2018-09-22T05:36:14.334Z,20.12
2018-09-22T05:38:42.668Z,21.42
2018-09-22T05:41:10.112Z,20.37
2018-09-22T05:43:37.514Z,20.32
2018-09-22T05:46:05.292Z,18.35
2018-09-22T05:48:33.594Z,20.70
2018-09-22T05:51:01.006Z,20.45
2018-09-22T05:53:35.694Z,17.60
2018-09-22T05:56:03.270Z,20.05
2018-09-22T05:58:31.360Z,19.95
2018-09-22T06:00:59.417Z,18.02
2018-09-22T06:03:27.996Z,20.57
2018-09-22T06:05:55.558Z,20.92
2018-09-22T06:08:28.550Z,20.77
2018-09-22T06:10:56.151Z,22.20
2018-09-22T06:13:23.683Z,21.35
2018-09-22T06:15:51.949Z,22.22
2018-09-22T06:18:23.218Z,21.12
2018-09-22T06:20:54.567Z,18.48
2018-09-22T06:23:22.228Z,19.67
2018-09-22T06:25:49.869Z,17.65
2018-09-22T06:28:19.695Z,19.37
2018-09-22T06:30:49.906Z,21.15
2018-09-22T06:33:18.811Z,22.77
2018-09-22T06:35:46.589Z,21.05
2018-09-22T06:38:15.139Z,20.90
2018-09-22T06:40:48.968Z,20.05
2018-09-22T06:43:16.629Z,20.35
2018-09-22T06:45:45.258Z,20.27
2018-09-22T06:48:12.643Z,19.70
2018-09-22T06:50:40.122Z,17.95
2018-09-22T06:53:08.011Z,17.95
2018-09-22T06:55:35.460Z,21.17
2018-09-22T06:58:08.410Z,23.20
2018-09-22T07:00:36.334Z,25.60
2018-09-22T07:03:07.937Z,17.98
2018-09-22T07:05:36.567Z,21.55
2018-09-22T07:08:03.943Z,24.30
2018-09-22T07:10:35.318Z,19.07
2018-09-22T07:13:02.747Z,20.32
2018-09-22T07:15:30.849Z,20.48
2018-09-22T07:17:58.314Z,18.90
2018-09-22T07:20:26.745Z,21.33
2018-09-22T07:23:03.539Z,19.05
2018-09-22T07:25:31.652Z,18.10
2018-09-22T07:27:59.039Z,19.77
2018-09-22T07:30:26.395Z,18.07
2018-09-22T07:32:53.679Z,21.50
2018-09-22T07:35:21.063Z,17.95
2018-09-22T07:37:48.344Z,17.50
2018-09-22T07:40:15.702Z,19.98
2018-09-22T07:42:43.096Z,18.45
2018-09-22T07:45:10.414Z,25.60
2018-09-22T07:47:37.748Z,18.57
2018-09-22T07:50:05.149Z,21.52
2018-09-22T07:52:32.576Z,17.52
2018-09-22T07:55:00.066Z,17.70
2018-09-22T07:57:27.441Z,17.17
2018-09-22T07:59:54.776Z,19.12
2018-09-22T08:02:22.101Z,18.75
2018-09-22T08:04:49.407Z,23.67
2018-09-22T08:07:16.797Z,21.30
2018-09-22T08:09:44.616Z,20.68
2018-09-22T08:12:11.979Z,19.27
2018-09-22T08:14:39.295Z,20.95
2018-09-22T08:17:06.594Z,20.32
2018-09-22T08:19:33.993Z,18.30
2018-09-22T08:22:01.341Z,17.90
2018-09-22T08:24:29.363Z,20.95
2018-09-22T08:26:56.695Z,19.55
2018-09-22T08:29:23.987Z,18.95
2018-09-22T08:31:51.338Z,19.52
2018-09-22T08:34:18.704Z,18.37
2018-09-22T08:36:46.098Z,17.55
2018-09-22T08:39:13.484Z,23.70
2018-09-22T08:41:41.278Z,19.17
2018-09-22T08:44:08.591Z,17.82
2018-09-22T08:46:36.203Z,18.37
2018-09-22T08:49:03.525Z,18.50
2018-09-22T08:51:30.813Z,18.60
2018-09-22T08:53:58.111Z,20.90
2018-09-22T08:56:25.469Z,19.37
2018-09-22T08:58:52.818Z,18.87
2018-09-22T09:01:20.222Z,18.00
2018-09-22T09:03:47.627Z,19.48
2018-09-22T09:06:14.918Z,17.33
2018-09-22T09:08:42.184Z,19.30
2018-09-22T09:11:09.564Z,19.90
2018-09-22T09:13:36.884Z,23.18
2018-09-22T09:16:04.252Z,20.70
2018-09-22T09:18:31.570Z,18.37
2018-09-22T09:20:58.958Z,19.60
2018-09-22T09:23:26.249Z,20.20
2018-09-22T09:25:54.356Z,19.82
2018-09-22T09:28:21.710Z,18.77
2018-09-22T09:30:49.051Z,17.50
2018-09-22T09:33:16.500Z,21.45
2018-09-22T09:35:43.879Z,21.62
2018-09-22T09:38:11.241Z,18.67
2018-09-22T09:40:38.607Z,21.40
2018-09-22T09:43:05.898Z,20.10
2018-09-22T09:45:33.237Z,19.32
2018-09-22T09:48:00.617Z,19.27
2018-09-22T09:50:28.043Z,20.85
2018-09-22T09:52:55.533Z,19.10
2018-09-22T09:55:22.923Z,21.87
2018-09-22T09:57:50.234Z,22.95
2018-09-22T10:00:21.906Z,18.10
2018-09-22T10:02:49.229Z,17.20
2018-09-22T10:05:16.604Z,22.45
2018-09-22T10:07:44.377Z,18.60
2018-09-22T10:10:11.707Z,20.95
2018-09-22T10:12:39.075Z,17.32
2018-09-22T10:15:06.428Z,18.85
2018-09-22T10:17:33.829Z,18.07
2018-09-22T10:20:01.268Z,18.12
2018-09-22T10:22:29.558Z,16.60
2018-09-22T10:24:58.342Z,21.00
2018-09-22T10:27:29.777Z,18.10
2018-09-22T10:29:57.795Z,20.43
2018-09-22T10:32:25.202Z,19.52
2018-09-22T10:34:52.590Z,18.27
2018-09-22T10:37:20.929Z,20.68
2018-09-22T10:39:48.659Z,17.60
2018-09-22T10:42:16.688Z,17.92
2018-09-22T10:44:44.104Z,18.55
2018-09-22T10:47:15.742Z,17.95
2018-09-22T10:49:43.818Z,19.50
2018-09-22T10:52:11.358Z,18.55
2018-09-22T10:54:38.907Z,16.87
2018-09-22T10:57:07.191Z,19.52
2018-09-22T11:02:02.007Z,20.10
2018-09-22T11:04:29.773Z,17.73
2018-09-22T11:06:57.327Z,17.30
2018-09-22T11:09:25.754Z,16.85
2018-09-22T11:11:53.101Z,17.42
2018-09-22T11:14:20.498Z,16.67
2018-09-22T11:16:48.817Z,18.23
2018-09-22T11:19:16.643Z,16.82
2018-09-22T11:21:44.034Z,17.65
2018-09-22T11:24:11.374Z,17.55
2018-09-22T11:26:38.762Z,15.58
2018-09-22T11:29:06.282Z,15.15
2018-09-22T11:31:34.385Z,15.50
2018-09-22T11:34:06.203Z,18.12
2018-09-22T11:36:33.630Z,17.25
2018-09-22T11:39:01.031Z,19.42
2018-09-22T11:41:28.446Z,16.10
2018-09-22T11:43:55.971Z,16.12
2018-09-22T11:46:27.722Z,15.20
2018-09-22T11:48:55.163Z,16.60
2018-09-22T11:51:23.023Z,15.98
2018-09-22T11:56:18.271Z,16.60
2018-09-22T11:58:45.598Z,17.62
2018-09-22T12:01:13.727Z,15.70
2018-09-22T12:03:41.172Z,19.10
2018-09-22T12:06:08.595Z,17.00
2018-09-22T12:08:35.887Z,24.70
2018-09-22T12:11:03.296Z,16.12
2018-09-22T12:13:31.387Z,15.30
2018-09-22T12:15:58.857Z,16.60
2018-09-22T12:18:30.298Z,18.55
2018-09-22T12:20:57.673Z,16.23
2018-09-22T12:23:24.980Z,16.37
2018-09-22T12:25:52.314Z,17.02
2018-09-22T12:28:19.631Z,18.65
2018-09-22T12:30:46.932Z,18.90
2018-09-22T12:33:14.291Z,18.87
2018-09-22T12:35:41.638Z,15.90
2018-09-22T12:38:09.011Z,16.93
2018-09-22T12:40:36.285Z,16.95
2018-09-22T12:43:03.657Z,19.23
2018-09-22T12:45:31.106Z,15.63
2018-09-22T12:47:58.491Z,17.57
2018-09-22T12:50:25.800Z,18.12
2018-09-22T12:52:53.105Z,15.65
2018-09-22T12:55:20.392Z,16.10
2018-09-22T12:57:47.706Z,17.98
2018-09-22T13:00:15.033Z,15.98
2018-09-22T13:02:42.357Z,17.75
2018-09-22T13:05:09.769Z,16.20
2018-09-22T13:07:37.090Z,16.80
2018-09-22T13:10:04.459Z,17.67
2018-09-22T13:12:31.839Z,16.25
2018-09-22T13:14:59.548Z,18.32
2018-09-22T13:17:26.871Z,18.67
2018-09-22T13:19:54.232Z,19.48
2018-09-22T13:22:21.566Z,17.35
2018-09-22T13:24:49.041Z,16.20
2018-09-22T13:27:16.340Z,17.17
2018-09-22T13:29:43.644Z,18.10
2018-09-22T13:32:11.150Z,16.80
2018-09-22T13:34:38.459Z,15.23
2018-09-22T13:37:06.621Z,16.95
2018-09-22T13:39:33.929Z,17.27
2018-09-22T13:42:01.592Z,17.73
2018-09-22T13:44:28.935Z,16.45
2018-09-22T13:46:56.228Z,17.42
2018-09-22T13:49:23.592Z,16.97
2018-09-22T13:51:50.901Z,15.90
2018-09-22T13:54:18.222Z,16.10
2018-09-22T13:56:45.498Z,16.00
2018-09-22T13:59:12.819Z,17.55
2018-09-22T14:01:40.123Z,17.37
2018-09-22T14:04:07.439Z,17.17
2018-09-22T14:06:34.725Z,16.20
2018-09-22T14:09:02.232Z,18.98
2018-09-22T14:11:29.595Z,17.20
2018-09-22T14:13:56.992Z,18.80
2018-09-22T14:16:24.574Z,17.42
2018-09-22T14:18:51.986Z,18.85
2018-09-22T14:21:19.366Z,16.60
2018-09-22T14:23:47.135Z,17.02
2018-09-22T14:26:14.466Z,18.05
2018-09-22T14:28:41.835Z,16.12
2018-09-22T14:31:09.253Z,16.50
2018-09-22T14:33:36.867Z,17.20
2018-09-22T14:36:04.376Z,15.80
2018-09-22T14:38:31.776Z,18.73
2018-09-22T14:40:59.084Z,15.55
2018-09-22T14:43:26.394Z,19.32
2018-09-22T14:45:53.683Z,18.45
2018-09-22T14:48:20.972Z,16.97
2018-09-22T14:50:50.487Z,19.35
2018-09-22T14:53:17.866Z,21.00
2018-09-22T14:55:45.135Z,17.80
2018-09-22T14:58:12.439Z,16.60
2018-09-22T15:00:39.747Z,19.77
2018-09-22T15:03:07.308Z,18.02
2018-09-22T15:05:34.668Z,16.65
2018-09-22T15:08:02.011Z,16.45
2018-09-22T15:10:29.343Z,18.37
2018-09-22T15:12:56.682Z,17.82
2018-09-22T15:15:24.067Z,18.10
2018-09-22T15:17:51.406Z,16.45
2018-09-22T15:20:18.968Z,17.85
2018-09-22T15:22:46.295Z,17.57
2018-09-22T15:25:13.577Z,17.17
2018-09-22T15:27:40.904Z,18.05
2018-09-22T15:30:08.283Z,20.75
2018-09-22T15:32:35.850Z,17.52
2018-09-22T15:35:03.175Z,15.65
2018-09-22T15:37:30.485Z,16.62
2018-09-22T15:39:57.812Z,16.60
2018-09-22T15:42:25.150Z,15.65
2018-09-22T15:44:52.442Z,15.72
2018-09-22T15:47:19.815Z,15.15
2018-09-22T15:49:47.111Z,20.12
2018-09-22T15:52:14.491Z,17.30
2018-09-22T15:54:41.784Z,16.87
2018-09-22T15:57:09.082Z,15.30
2018-09-22T15:59:36.538Z,17.27
2018-09-22T16:02:03.872Z,16.12
2018-09-22T16:04:31.178Z,16.12
2018-09-22T16:06:58.509Z,16.42
2018-09-22T16:09:25.827Z,16.10
2018-09-22T16:11:53.154Z,17.62
2018-09-22T16:14:20.466Z,15.60
2018-09-22T16:16:47.783Z,17.25
2018-09-22T16:19:15.451Z,19.75
2018-09-22T16:21:42.827Z,15.00
2018-09-22T16:24:10.205Z,16.00
2018-09-22T16:26:37.485Z,15.38
2018-09-22T16:29:04.809Z,15.43
2018-09-22T16:31:32.201Z,15.60
2018-09-22T16:33:59.488Z,16.67
2018-09-22T16:36:26.784Z,15.75
2018-09-22T16:38:54.087Z,17.90
2018-09-22T16:41:21.468Z,18.25
2018-09-22T16:43:48.789Z,16.97
2018-09-22T16:46:16.307Z,16.80
2018-09-22T16:48:43.706Z,17.37
2018-09-22T16:51:11.101Z,16.80
2018-09-22T16:53:38.401Z,16.23
2018-09-22T16:56:05.718Z,17.07
2018-09-22T16:58:33.032Z,18.25
2018-09-22T17:01:00.344Z,15.83
2018-09-22T17:03:27.642Z,20.15
2018-09-22T17:05:55.023Z,19.35
2018-09-22T17:08:22.279Z,16.82
2018-09-22T17:10:49.555Z,17.85
2018-09-22T17:13:16.928Z,16.55
2018-09-22T17:15:44.223Z,16.52
2018-09-22T17:18:11.529Z,17.73
2018-09-22T17:20:38.946Z,17.55
2018-09-22T17:23:06.280Z,18.70
2018-09-22T17:25:33.587Z,17.20
2018-09-22T17:28:00.945Z,17.20
2018-09-22T17:30:28.263Z,16.75
2018-09-22T17:32:55.575Z,19.17
2018-09-22T17:35:22.861Z,17.52
2018-09-22T17:37:50.261Z,17.15
2018-09-22T17:40:17.579Z,19.52
2018-09-22T17:42:44.989Z,18.90
2018-09-22T17:45:12.363Z,19.12
2018-09-22T17:47:39.719Z,18.75
2018-09-22T17:50:06.994Z,17.35
2018-09-22T17:52:34.328Z,18.65
2018-09-22T17:55:01.602Z,18.82
2018-09-22T17:57:28.922Z,18.15
2018-09-22T17:59:56.246Z,19.77
2018-09-22T18:02:23.913Z,19.37
2018-09-22T18:04:51.208Z,18.98
2018-09-22T18:07:18.555Z,16.82
2018-09-22T18:09:45.920Z,18.98
2018-09-22T18:12:13.205Z,17.92
2018-09-22T18:14:40.823Z,16.90
2018-09-22T18:17:08.191Z,18.07
2018-09-22T18:19:35.541Z,19.23
2018-09-22T18:22:02.838Z,19.02
2018-09-22T18:24:30.123Z,17.07
2018-09-22T18:26:57.434Z,19.62
2018-09-22T18:29:24.970Z,21.05
2018-09-22T18:31:52.255Z,17.90
2018-09-22T18:34:19.535Z,18.35
2018-09-22T18:36:47.782Z,21.05
2018-09-22T18:39:15.090Z,17.15
2018-09-22T18:41:42.442Z,17.10
2018-09-22T18:44:09.874Z,17.25
2018-09-22T18:46:37.226Z,18.07
2018-09-22T18:49:04.604Z,18.17
2018-09-22T18:51:32.049Z,17.12
2018-09-22T18:53:59.400Z,21.55
2018-09-22T18:56:27.072Z,17.90
2018-09-22T18:58:54.437Z,20.57
2018-09-22T19:01:21.742Z,17.10
2018-09-22T19:03:49.124Z,18.65
2018-09-22T19:06:16.483Z,18.05
2018-09-22T19:08:43.840Z,18.87
2018-09-22T19:11:11.288Z,18.27
2018-09-22T19:13:45.267Z,18.62
2018-09-22T19:16:17.895Z,17.42
2018-09-22T19:18:49.622Z,16.80
2018-09-22T19:22:20.107Z,18.42
2018-09-22T19:24:55.367Z,18.50
2018-09-22T19:27:28.990Z,18.67
2018-09-22T19:30:01.143Z,16.80
2018-09-22T19:32:33.116Z,17.98
2018-09-22T19:35:07.101Z,17.20
2018-09-22T19:38:09.625Z,18.45
2018-09-22T19:40:40.259Z,17.25
2018-09-22T19:43:26.869Z,18.50
2018-09-22T19:45:57.560Z,18.17
2018-09-22T19:49:01.063Z,20.30
2018-09-22T19:51:31.986Z,19.60
2018-09-22T19:54:00.215Z,17.30
2018-09-22T19:56:27.516Z,20.88
2018-09-22T19:58:54.918Z,18.42
2018-09-22T20:01:22.210Z,19.85
2018-09-22T20:03:49.542Z,17.37
2018-09-22T20:06:16.872Z,17.92
2018-09-22T20:08:44.246Z,17.00
2018-09-22T20:11:11.570Z,21.82
2018-09-22T20:13:38.946Z,17.15
2018-09-22T20:16:06.301Z,17.90
2018-09-22T20:18:34.120Z,16.67
2018-09-22T20:21:01.464Z,18.77
2018-09-22T20:23:28.842Z,16.52
2018-09-22T20:25:56.686Z,17.00
2018-09-22T20:28:24.009Z,17.12
2018-09-22T20:30:51.383Z,18.12
2018-09-22T20:33:18.858Z,18.65
2018-09-22T20:35:46.211Z,17.30
2018-09-22T20:38:13.487Z,18.73
2018-09-22T20:40:40.814Z,17.00
2018-09-22T20:43:08.160Z,17.23
2018-09-22T20:45:35.580Z,19.17
2018-09-22T20:48:02.880Z,17.85
2018-09-22T20:50:30.237Z,19.80
2018-09-22T20:52:57.636Z,18.48
2018-09-22T20:55:24.994Z,22.17
2018-09-22T20:57:52.669Z,18.05
2018-09-22T21:00:20.708Z,18.77
2018-09-22T21:02:48.014Z,17.75
2018-09-22T21:05:15.380Z,18.17
2018-09-22T21:07:42.742Z,22.98
2018-09-22T21:10:10.083Z,18.70
2018-09-22T21:12:37.514Z,18.52
2018-09-22T21:15:04.983Z,18.40
2018-09-22T21:17:32.358Z,21.33
2018-09-22T21:19:59.689Z,21.97
2018-09-22T21:22:27.159Z,19.05
2018-09-22T21:24:58.334Z,19.60
2018-09-22T21:27:25.728Z,19.87
2018-09-22T21:29:53.130Z,18.87
2018-09-22T21:32:20.532Z,21.07
2018-09-22T21:34:47.898Z,21.50
2018-09-22T21:37:15.236Z,20.92
2018-09-22T21:39:42.770Z,21.00
2018-09-22T21:42:10.148Z,21.55
2018-09-22T21:44:37.463Z,23.27
2018-09-22T21:47:04.870Z,23.30
2018-09-22T21:49:32.499Z,22.22
2018-09-22T21:51:59.878Z,23.18
2018-09-22T21:54:27.214Z,29.00
2018-09-22T21:56:54.579Z,22.52
2018-09-22T21:59:21.910Z,25.50
2018-09-22T22:01:49.232Z,24.52
2018-09-22T22:04:16.591Z,23.70
2018-09-22T22:06:44.352Z,23.32
2018-09-22T22:09:13.145Z,25.32
2018-09-22T22:11:41.046Z,24.72
2018-09-22T22:14:09.207Z,27.58
2018-09-22T22:16:36.917Z,25.52
2018-09-22T22:19:04.311Z,24.87
2018-09-22T22:21:31.635Z,25.55
2018-09-22T22:23:58.996Z,26.62
2018-09-22T22:26:26.438Z,26.17
2018-09-22T22:28:53.841Z,25.65
2018-09-22T22:31:21.314Z,27.70
2018-09-22T22:33:50.239Z,27.73
2018-09-22T22:36:17.639Z,28.27
2018-09-22T22:38:45.367Z,28.55
2018-09-22T22:41:12.845Z,27.17
2018-09-22T22:43:40.367Z,28.05
2018-09-22T22:46:07.755Z,30.65
2018-09-22T22:48:35.064Z,32.08
2018-09-22T22:51:02.720Z,28.25
2018-09-22T22:53:30.163Z,28.35
2018-09-22T22:55:57.513Z,28.07
2018-09-22T22:58:24.838Z,29.65
2018-09-22T23:00:52.215Z,30.77
2018-09-22T23:03:19.518Z,30.90
2018-09-22T23:05:47.073Z,29.80
2018-09-22T23:08:14.427Z,31.52
2018-09-22T23:10:41.842Z,31.27
2018-09-22T23:13:09.203Z,30.10
2018-09-22T23:15:36.561Z,27.82
2018-09-22T23:18:04.318Z,28.67
2018-09-22T23:20:31.670Z,28.00
2018-09-22T23:22:59.004Z,29.52
2018-09-22T23:25:26.342Z,28.95
2018-09-22T23:27:53.757Z,29.35
2018-09-22T23:30:21.137Z,26.40
2018-09-22T23:32:48.493Z,23.90
2018-09-22T23:35:15.823Z,25.90
2018-09-22T23:37:43.252Z,25.23
2018-09-22T23:40:10.566Z,23.32
2018-09-22T23:42:38.103Z,24.55
2018-09-22T23:45:05.532Z,28.92
2018-09-22T23:47:32.854Z,26.15
2018-09-22T23:50:00.211Z,24.70
2018-09-22T23:52:27.538Z,23.50
2018-09-22T23:54:54.833Z,25.52
2018-09-22T23:57:22.196Z,23.77
2018-09-22T23:59:49.504Z,23.25
